Terminal Aerodrome Forecast
Issued by NWS Grand Junction, CO

Current Version | Previous Version | Text Only | Print | Product List | Glossary On
Versions: 1 2 3 4 5 6 7 8 9 10 11 12 13 14 15 16 17 18 19 20 21 22 23 24 25 26
000
FTUS45 KGJT 201807 AAA
TAFGJT
TAF AMD
KGJT 201807Z 2018/2118 19017G28KT P6SM FEW200
     FM202000 23024G35KT P6SM FEW200
     FM210100 28015G24KT P6SM BKN120
     FM210400 29015G23KT P6SM VCSH BKN100
     FM210800 33007KT P6SM SCT140=

USA.gov is the U.S. government's official web portal to all federal, state and local government web resources and services.